createdAt,value
2023-04-07T00:00:42.581Z,0.30
2023-04-07T00:03:44.422Z,0.30
2023-04-07T00:06:46.148Z,0.30
2023-04-07T00:09:47.719Z,0.40
2023-04-07T00:12:49.262Z,0.30
2023-04-07T00:15:50.873Z,0.30
2023-04-07T00:18:52.546Z,0.30
2023-04-07T00:21:54.444Z,0.40
2023-04-07T00:24:56.024Z,0.40
2023-04-07T00:27:57.886Z,0.30
2023-04-07T00:30:59.479Z,0.30
2023-04-07T00:34:01.151Z,0.40
2023-04-07T00:37:02.761Z,0.30
2023-04-07T00:40:05.195Z,0.28
2023-04-07T00:43:06.810Z,0.30
2023-04-07T00:46:08.509Z,0.30
2023-04-07T00:49:11.342Z,0.30
2023-04-07T00:52:14.650Z,0.40
2023-04-07T00:55:16.302Z,0.20
2023-04-07T00:58:18.014Z,0.30
2023-04-07T01:01:24.915Z,0.30
2023-04-07T01:04:26.465Z,0.20
2023-04-07T01:07:36.613Z,0.28
2023-04-07T01:10:50.091Z,0.40
2023-04-07T01:13:54.405Z,0.40
2023-04-07T01:16:59.830Z,0.30
2023-04-07T01:20:08.003Z,0.30
2023-04-07T01:23:17.790Z,0.30
2023-04-07T01:26:23.292Z,0.28
2023-04-07T01:29:44.780Z,0.40
2023-04-07T01:32:51.877Z,0.40
2023-04-07T01:35:55.183Z,0.30
2023-04-07T01:38:59.042Z,0.30
2023-04-07T01:42:04.544Z,0.30
2023-04-07T01:45:07.817Z,0.30
2023-04-07T01:48:09.852Z,0.30
2023-04-07T01:54:17.861Z,0.40
2023-04-07T01:57:19.399Z,0.40
2023-04-07T02:00:21.233Z,0.40
2023-04-07T02:03:34.846Z,0.30
2023-04-07T02:06:43.416Z,0.40
2023-04-07T02:09:48.361Z,0.40
2023-04-07T02:12:50.037Z,0.30
2023-04-07T02:15:54.766Z,0.30
2023-04-07T02:18:56.778Z,0.40
2023-04-07T02:22:01.450Z,0.30
2023-04-07T02:25:03.058Z,0.40
2023-04-07T02:28:06.014Z,0.50
2023-04-07T02:31:07.615Z,0.38
2023-04-07T02:34:09.384Z,0.40
2023-04-07T02:37:11.038Z,0.30
2023-04-07T02:40:13.264Z,0.50
2023-04-07T02:43:14.970Z,0.57
2023-04-07T02:46:16.783Z,0.38
2023-04-07T02:49:18.374Z,0.32
2023-04-07T02:52:19.903Z,0.40
2023-04-07T02:55:21.486Z,0.30
2023-04-07T02:58:23.068Z,0.30
2023-04-07T03:01:24.662Z,0.30
2023-04-07T03:04:26.525Z,0.40
2023-04-07T03:07:28.375Z,0.40
2023-04-07T03:10:29.943Z,0.30
2023-04-07T03:13:32.327Z,0.40
2023-04-07T03:16:33.947Z,0.38
2023-04-07T03:19:35.525Z,0.30
2023-04-07T03:22:37.091Z,0.47
2023-04-07T03:25:38.693Z,0.30
2023-04-07T03:28:40.579Z,0.40
2023-04-07T03:31:42.192Z,0.40
2023-04-07T03:34:43.784Z,0.40
2023-04-07T03:37:45.428Z,0.30
2023-04-07T03:40:47.173Z,0.40
2023-04-07T03:43:48.706Z,0.50
2023-04-07T03:46:50.816Z,0.40
2023-04-07T03:49:52.331Z,0.40
2023-04-07T03:52:53.899Z,0.45
2023-04-07T03:55:55.511Z,0.40
2023-04-07T03:58:57.215Z,0.30
2023-04-07T04:01:58.963Z,0.43
2023-04-07T04:05:00.623Z,0.30
2023-04-07T04:08:02.189Z,0.40
2023-04-07T04:11:03.756Z,0.32
2023-04-07T04:14:06.586Z,0.50
2023-04-07T04:17:08.143Z,0.43
2023-04-07T04:20:10.260Z,0.50
2023-04-07T04:23:11.811Z,0.40
2023-04-07T04:26:13.408Z,0.50
2023-04-07T04:29:15.027Z,0.50
2023-04-07T04:32:17.913Z,0.35
2023-04-07T04:35:19.634Z,0.38
2023-04-07T04:38:21.302Z,0.50
2023-04-07T04:41:22.860Z,0.60
2023-04-07T04:44:24.462Z,0.68
2023-04-07T04:47:26.228Z,0.60
2023-04-07T04:50:27.775Z,0.60
2023-04-07T04:53:29.449Z,0.70
2023-04-07T04:56:31.020Z,0.70
2023-04-07T04:59:32.558Z,0.60
2023-04-07T05:02:34.397Z,0.80
2023-04-07T05:05:36.243Z,0.70
2023-04-07T05:08:37.796Z,0.70
2023-04-07T05:11:41.260Z,0.70
2023-04-07T05:14:42.814Z,0.50
2023-04-07T05:17:44.486Z,0.80
2023-04-07T05:20:48.560Z,0.88
2023-04-07T05:23:50.362Z,0.90
2023-04-07T05:26:52.090Z,1.10
2023-04-07T05:29:53.651Z,1.17
2023-04-07T05:32:55.379Z,0.70
2023-04-07T05:35:56.968Z,1.00
2023-04-07T05:38:58.584Z,1.13
2023-04-07T05:42:02.195Z,1.20
2023-04-07T05:45:04.808Z,1.25
2023-04-07T05:48:06.595Z,1.33
2023-04-07T05:51:08.234Z,1.20
2023-04-07T05:54:09.814Z,0.93
2023-04-07T05:57:11.432Z,1.30
2023-04-07T06:00:13.918Z,1.38
2023-04-07T06:03:15.596Z,1.20
2023-04-07T06:06:17.160Z,1.40
2023-04-07T06:09:18.672Z,1.10
2023-04-07T06:12:20.504Z,1.83
2023-04-07T06:15:22.094Z,1.40
2023-04-07T06:18:23.799Z,1.40
2023-04-07T06:21:27.436Z,1.48
2023-04-07T06:24:28.991Z,1.10
2023-04-07T06:27:30.710Z,1.25
2023-04-07T06:30:32.298Z,1.60
2023-04-07T06:33:33.902Z,1.58
2023-04-07T06:36:35.672Z,2.00
2023-04-07T06:39:38.333Z,1.48
2023-04-07T06:42:39.945Z,1.65
2023-04-07T06:45:41.565Z,1.23
2023-04-07T06:48:43.218Z,1.33
2023-04-07T06:51:44.910Z,1.60
2023-04-07T06:54:46.715Z,1.50
2023-04-07T06:57:48.391Z,1.88
2023-04-07T07:00:50.032Z,2.00
2023-04-07T07:03:51.982Z,1.70
2023-04-07T07:06:56.053Z,2.00
2023-04-07T07:09:57.577Z,1.33
2023-04-07T07:12:59.114Z,1.80
2023-04-07T07:16:01.327Z,1.65
2023-04-07T07:19:03.007Z,1.65
2023-04-07T07:22:04.829Z,1.90
2023-04-07T07:25:06.738Z,1.00
2023-04-07T07:28:09.355Z,1.23
2023-04-07T07:31:13.247Z,1.50
2023-04-07T07:34:14.950Z,1.48
2023-04-07T07:37:16.642Z,1.38
2023-04-07T07:40:18.637Z,1.60
2023-04-07T07:43:20.402Z,1.80
2023-04-07T07:46:23.796Z,1.80
2023-04-07T07:49:25.529Z,1.95
2023-04-07T07:52:27.173Z,1.85
2023-04-07T07:55:29.305Z,1.58
2023-04-07T07:58:30.982Z,1.67
2023-04-07T08:01:32.858Z,1.67
2023-04-07T08:04:35.712Z,1.83
2023-04-07T08:07:37.757Z,1.85
2023-04-07T08:10:39.386Z,1.85
2023-04-07T08:13:45.440Z,1.60
2023-04-07T08:16:47.579Z,1.50
2023-04-07T08:19:49.192Z,1.90
2023-04-07T08:22:51.152Z,1.63
2023-04-07T08:25:52.729Z,2.03
2023-04-07T08:28:56.040Z,1.40
2023-04-07T08:31:57.635Z,1.27
2023-04-07T08:34:59.210Z,2.10
2023-04-07T08:38:00.755Z,1.40
2023-04-07T08:41:10.539Z,1.35
2023-04-07T08:44:13.538Z,1.40
2023-04-07T08:47:17.810Z,1.50
2023-04-07T08:50:19.833Z,2.08
2023-04-07T08:53:28.246Z,1.60
2023-04-07T08:56:31.027Z,1.40
2023-04-07T08:59:33.799Z,1.70
2023-04-07T09:02:38.978Z,2.50
2023-04-07T09:05:40.902Z,1.90
2023-04-07T09:08:42.426Z,2.20
2023-04-07T09:11:44.303Z,2.40
2023-04-07T09:14:46.094Z,2.50
2023-04-07T09:17:48.458Z,1.70
2023-04-07T09:21:01.956Z,1.52
2023-04-07T09:24:21.486Z,2.00
2023-04-07T09:27:23.204Z,1.70
2023-04-07T09:30:25.373Z,2.45
2023-04-07T09:33:28.357Z,1.92
2023-04-07T09:36:42.331Z,1.42
2023-04-07T09:39:53.948Z,1.70
2023-04-07T09:42:55.764Z,1.60
2023-04-07T09:46:08.530Z,1.67
2023-04-07T09:49:10.146Z,1.70
2023-04-07T09:52:11.709Z,1.73
2023-04-07T09:55:14.613Z,1.30
2023-04-07T09:58:17.066Z,1.80
2023-04-07T10:01:20.640Z,1.75
2023-04-07T10:04:23.412Z,1.65
2023-04-07T10:07:25.830Z,1.60
2023-04-07T10:10:28.746Z,1.75
2023-04-07T10:13:35.498Z,1.70
2023-04-07T10:16:40.563Z,1.77
2023-04-07T10:19:42.204Z,1.90
2023-04-07T10:22:46.675Z,1.45
2023-04-07T10:25:52.571Z,1.50
2023-04-07T10:29:00.825Z,1.33
2023-04-07T10:32:03.605Z,1.45
2023-04-07T10:35:06.624Z,1.75
2023-04-07T10:38:08.353Z,1.65
2023-04-07T10:41:33.913Z,1.40
2023-04-07T10:44:38.463Z,1.40
2023-04-07T10:48:10.993Z,1.23
2023-04-07T10:51:15.416Z,1.10
2023-04-07T10:54:23.183Z,0.90
2023-04-07T10:57:24.964Z,1.10
2023-04-07T11:00:26.532Z,1.45
2023-04-07T11:03:30.197Z,1.25
2023-04-07T11:06:32.238Z,1.38
2023-04-07T11:09:34.523Z,1.20
2023-04-07T11:12:36.266Z,1.00
2023-04-07T11:15:40.335Z,1.40
2023-04-07T11:18:43.281Z,1.00
2023-04-07T11:21:44.978Z,1.35
2023-04-07T11:24:47.337Z,1.52
2023-04-07T11:27:49.233Z,1.40
2023-04-07T11:30:52.850Z,1.20
2023-04-07T11:33:56.413Z,1.20
2023-04-07T11:37:02.044Z,1.20
2023-04-07T11:40:04.001Z,1.20
2023-04-07T11:43:17.344Z,1.20
2023-04-07T11:46:19.260Z,1.58
2023-04-07T11:49:21.557Z,1.30
2023-04-07T11:52:23.230Z,1.40
2023-04-07T11:55:24.791Z,1.77
2023-04-07T11:58:26.618Z,1.35
2023-04-07T12:01:40.920Z,1.00
2023-04-07T12:04:57.353Z,1.00
2023-04-07T12:07:59.084Z,0.98
2023-04-07T12:11:05.218Z,0.80
2023-04-07T12:14:07.107Z,1.40
2023-04-07T12:17:20.651Z,1.50
2023-04-07T12:20:22.277Z,1.08
2023-04-07T12:23:23.885Z,1.00
2023-04-07T12:26:25.728Z,1.00
2023-04-07T12:29:27.892Z,1.27
2023-04-07T12:32:29.600Z,1.40
2023-04-07T12:35:31.324Z,0.98
2023-04-07T12:38:32.988Z,0.80
2023-04-07T12:41:35.213Z,1.00
2023-04-07T12:44:37.316Z,0.98
2023-04-07T12:47:38.888Z,0.70
2023-04-07T12:50:40.562Z,0.90
2023-04-07T12:53:42.195Z,0.82
2023-04-07T12:56:43.758Z,0.80
2023-04-07T12:59:45.361Z,1.10
2023-04-07T13:02:47.260Z,1.00
2023-04-07T13:05:49.394Z,1.10
2023-04-07T13:08:51.802Z,0.90
2023-04-07T13:11:53.400Z,0.88
2023-04-07T13:15:00.064Z,0.60
2023-04-07T13:18:02.282Z,0.80
2023-04-07T13:24:08.744Z,0.77
2023-04-07T13:27:10.869Z,0.70
2023-04-07T13:30:13.659Z,0.70
2023-04-07T13:33:15.276Z,0.80
2023-04-07T13:36:16.889Z,1.13
2023-04-07T13:39:18.477Z,1.00
2023-04-07T13:42:21.002Z,0.80
2023-04-07T13:45:22.557Z,0.85
2023-04-07T13:48:24.149Z,0.90
2023-04-07T13:51:25.722Z,1.00
2023-04-07T13:54:27.365Z,0.77
2023-04-07T13:57:28.965Z,0.70
2023-04-07T14:00:30.679Z,0.60
2023-04-07T14:03:32.937Z,0.75
2023-04-07T14:06:36.670Z,0.75
2023-04-07T14:09:38.441Z,0.70
2023-04-07T14:12:40.400Z,0.80
2023-04-07T14:15:41.974Z,0.70
2023-04-07T14:18:44.483Z,0.60
2023-04-07T14:21:46.187Z,0.70
2023-04-07T14:24:47.720Z,0.70
2023-04-07T14:27:49.543Z,0.75
2023-04-07T14:30:51.590Z,0.70
2023-04-07T14:33:53.207Z,0.80
2023-04-07T14:36:56.383Z,0.80
2023-04-07T14:43:07.283Z,0.70
2023-04-07T14:46:09.289Z,0.50
2023-04-07T14:49:11.054Z,0.68
2023-04-07T14:52:14.181Z,0.90
2023-04-07T14:55:16.284Z,0.60
2023-04-07T14:58:17.903Z,0.60
2023-04-07T15:01:19.512Z,0.70
2023-04-07T15:04:21.186Z,0.80
2023-04-07T15:07:22.950Z,0.50
2023-04-07T15:10:24.604Z,0.57
2023-04-07T15:13:26.156Z,0.60
2023-04-07T15:16:27.734Z,0.50
2023-04-07T15:19:29.931Z,0.50
2023-04-07T15:22:31.529Z,0.60
2023-04-07T15:25:33.068Z,0.57
2023-04-07T15:28:34.908Z,0.50
2023-04-07T15:31:36.460Z,0.50
2023-04-07T15:34:38.153Z,0.50
2023-04-07T15:37:39.715Z,0.60
2023-04-07T15:40:41.512Z,0.43
2023-04-07T15:43:43.230Z,0.45
2023-04-07T15:46:44.974Z,0.50
2023-04-07T15:49:46.614Z,0.60
2023-04-07T15:52:48.316Z,0.57
2023-04-07T15:55:49.881Z,0.57
2023-04-07T15:58:51.622Z,0.50
2023-04-07T16:01:53.921Z,0.50
2023-04-07T16:04:55.522Z,0.50
2023-04-07T16:07:57.214Z,0.50
2023-04-07T16:10:59.011Z,0.60
2023-04-07T16:14:00.656Z,0.60
2023-04-07T16:17:02.415Z,0.50
2023-04-07T16:20:04.574Z,0.60
2023-04-07T16:23:06.175Z,0.50
2023-04-07T16:26:07.768Z,0.55
2023-04-07T16:29:09.302Z,0.43
2023-04-07T16:32:11.096Z,0.32
2023-04-07T16:35:16.135Z,0.50
2023-04-07T16:38:17.682Z,0.60
2023-04-07T16:41:20.223Z,0.60
2023-04-07T16:44:23.011Z,0.50
2023-04-07T16:47:26.237Z,0.40
2023-04-07T16:50:30.978Z,0.50
2023-04-07T16:53:32.550Z,0.55
2023-04-07T16:56:34.099Z,0.40
2023-04-07T16:59:35.955Z,0.40
2023-04-07T17:02:37.930Z,0.40
2023-04-07T17:05:40.199Z,0.40
2023-04-07T17:08:42.062Z,0.40
2023-04-07T17:11:43.596Z,0.40
2023-04-07T17:14:45.339Z,0.40
2023-04-07T17:17:46.972Z,0.20
2023-04-07T17:20:56.237Z,0.30
2023-04-07T17:23:57.827Z,0.28
2023-04-07T17:26:59.376Z,0.30
2023-04-07T17:30:00.958Z,0.40
2023-04-07T17:33:03.745Z,0.30
2023-04-07T17:36:05.420Z,0.30
2023-04-07T17:39:07.056Z,0.20
2023-04-07T17:42:11.200Z,0.30
2023-04-07T17:45:12.917Z,0.22
2023-04-07T17:48:14.603Z,0.20
2023-04-07T17:51:18.492Z,0.20
2023-04-07T17:54:20.062Z,0.30
2023-04-07T17:57:21.650Z,0.30
2023-04-07T18:00:23.707Z,0.40
2023-04-07T18:03:25.745Z,0.38
2023-04-07T18:06:28.568Z,0.47
2023-04-07T18:09:30.597Z,0.30
2023-04-07T18:12:32.236Z,0.30
2023-04-07T18:15:33.935Z,0.40
2023-04-07T18:18:38.107Z,0.43
2023-04-07T18:21:39.679Z,0.40
2023-04-07T18:24:41.218Z,0.20
2023-04-07T18:27:42.997Z,0.30
2023-04-07T18:30:44.821Z,0.35
2023-04-07T18:33:46.413Z,0.63
2023-04-07T18:36:48.477Z,0.57
2023-04-07T18:39:50.280Z,0.30
2023-04-07T18:42:52.013Z,0.30
2023-04-07T18:45:54.274Z,0.50
2023-04-07T18:48:55.865Z,0.20
2023-04-07T18:51:57.626Z,0.40
2023-04-07T18:54:59.258Z,0.60
2023-04-07T18:58:00.873Z,0.50
2023-04-07T19:01:02.645Z,0.60
2023-04-07T19:04:04.535Z,0.55
2023-04-07T19:07:06.303Z,0.50
2023-04-07T19:10:09.249Z,0.65
2023-04-07T19:13:11.059Z,0.38
2023-04-07T19:16:12.745Z,0.30
2023-04-07T19:19:14.420Z,0.30
2023-04-07T19:22:16.584Z,0.40
2023-04-07T19:25:18.095Z,0.30
2023-04-07T19:28:19.711Z,0.40
2023-04-07T19:31:21.273Z,0.50
2023-04-07T19:34:23.181Z,0.45
2023-04-07T19:37:24.746Z,0.40
2023-04-07T19:40:26.474Z,0.30
2023-04-07T19:43:28.021Z,0.40
2023-04-07T19:46:29.731Z,0.40
2023-04-07T19:49:31.627Z,0.40
2023-04-07T19:52:33.241Z,0.50
2023-04-07T19:55:34.788Z,0.50
2023-04-07T19:58:38.449Z,0.75
2023-04-07T20:01:40.231Z,0.60
2023-04-07T20:04:41.942Z,0.50
2023-04-07T20:07:44.227Z,0.50
2023-04-07T20:10:45.800Z,0.50
2023-04-07T20:13:48.441Z,0.50
2023-04-07T20:16:50.044Z,0.35
2023-04-07T20:19:54.637Z,0.40
2023-04-07T20:22:56.266Z,0.50
2023-04-07T20:25:57.830Z,0.50
2023-04-07T20:28:59.450Z,0.40
2023-04-07T20:32:01.164Z,0.40
2023-04-07T20:35:03.945Z,0.38
2023-04-07T20:38:06.058Z,0.40
2023-04-07T20:41:11.718Z,0.47
2023-04-07T20:44:13.324Z,0.50
2023-04-07T20:47:14.967Z,0.50
2023-04-07T20:50:17.042Z,0.40
2023-04-07T20:53:19.691Z,0.52
2023-04-07T20:56:21.784Z,0.70
2023-04-07T20:59:23.399Z,0.40
2023-04-07T21:02:25.165Z,0.40
2023-04-07T21:05:28.330Z,0.60
2023-04-07T21:08:29.927Z,0.70
2023-04-07T21:11:31.570Z,0.50
2023-04-07T21:14:33.195Z,0.60
2023-04-07T21:17:34.890Z,0.60
2023-04-07T21:20:37.557Z,0.50
2023-04-07T21:23:39.173Z,0.65
2023-04-07T21:26:40.908Z,0.68
2023-04-07T21:29:42.644Z,0.60
2023-04-07T21:32:47.145Z,0.70
2023-04-07T21:35:49.658Z,1.00
2023-04-07T21:38:52.362Z,0.80
2023-04-07T21:41:53.966Z,0.60
2023-04-07T21:44:55.826Z,0.50
2023-04-07T21:47:57.418Z,0.70
2023-04-07T21:50:59.044Z,0.70
2023-04-07T21:54:00.940Z,0.77
2023-04-07T21:57:02.493Z,0.73
2023-04-07T22:00:05.208Z,0.80
2023-04-07T22:03:07.461Z,0.77
2023-04-07T22:06:09.361Z,0.85
2023-04-07T22:09:11.158Z,0.70
2023-04-07T22:12:12.697Z,0.68
2023-04-07T22:15:14.328Z,0.60
2023-04-07T22:18:16.103Z,0.90
2023-04-07T22:21:17.949Z,0.70
2023-04-07T22:24:19.500Z,0.70
2023-04-07T22:27:21.169Z,0.75
2023-04-07T22:30:24.556Z,0.90
2023-04-07T22:33:26.197Z,0.73
2023-04-07T22:36:28.032Z,0.60
2023-04-07T22:39:29.671Z,0.65
2023-04-07T22:42:31.243Z,0.70
2023-04-07T22:45:32.833Z,0.60
2023-04-07T22:48:34.454Z,0.70
2023-04-07T22:51:36.589Z,0.70
2023-04-07T22:54:38.138Z,0.70
2023-04-07T22:57:39.714Z,0.90
2023-04-07T23:00:41.367Z,0.77
2023-04-07T23:03:43.049Z,0.50
2023-04-07T23:06:44.681Z,0.80
2023-04-07T23:09:46.692Z,0.50
2023-04-07T23:12:48.270Z,0.60
2023-04-07T23:15:49.916Z,0.47
2023-04-07T23:18:51.843Z,0.70
2023-04-07T23:21:53.886Z,0.47
2023-04-07T23:24:56.855Z,0.52
2023-04-07T23:27:58.402Z,0.50
2023-04-07T23:30:59.993Z,0.40
2023-04-07T23:34:01.542Z,0.43
2023-04-07T23:37:03.298Z,0.60
2023-04-07T23:40:06.627Z,0.60
2023-04-07T23:43:08.229Z,0.80
2023-04-07T23:46:09.831Z,0.60
2023-04-07T23:49:11.630Z,0.60
2023-04-07T23:52:13.210Z,0.80
2023-04-07T23:55:14.829Z,0.77
2023-04-07T23:58:16.719Z,0.50
